KLYO/LYO METAR and TAF weather

Enter ICAO airport designator
Station Type Date Time Source
KLYO METAR 2020/10/22 03:15 UTC NOAA

KLYO 220315Z AUTO 09009KT 1/4SM FG OVC002 10/10 A2992 RMK AO2 T01040103


Station Type Date Time Source
KLYO Decoded METAR 2020/10/22 03:15 UTC NOAA

Station name not available
Oct 21, 2020 - 11:15 PM EDT / 2020.10.22 0315 UTC
Wind: from the E (090 degrees) at 10 MPH (9 KT):0
Visibility: 1/4 mile(s):0
Sky conditions: overcast
Weather: fog
Temperature: 50.7 F (10.4 C)
Dew Point: 50.5 F (10.3 C)
Relative Humidity: 99%
Pressure (altimeter): 29.92 in. Hg (1013 hPa)
ob: KLYO 220315Z AUTO 09009KT 1/4SM FG OVC002 10/10 A2992 RMK AO2 T01040103
cycle: 3

Station Type Date Time Source
KLYO TAF UTC NOAA

Error!

Example: see airport list